Time;durP1;ratioP1;P1;durP2;ratioP2;P2;SDS_P1;SDS_P2;PMS_P1;PMS_P2;Temp;Humidity;BMP_temperature;BMP_pressure;BME280_temperature;BME280_humidity;BME280_pressure;Samples;Min_cycle;Max_cycle;Signal;HPM_P1;HPM_P2
2022/01/24 00:01:05;;;;;;;;;;;-9.80;99.90;;;;;;4173718;28;19927;-59
2022/01/24 00:03:06;;;;;;;;;;;-9.90;99.90;;;;;;4173330;28;19959;-59
2022/01/24 00:05:08;;;;;;;;;;;-9.90;99.90;;;;;;4174639;28;19971;-59
2022/01/24 00:07:09;;;;;;;;;;;-9.90;99.90;;;;;;4172764;28;19943;-58
2022/01/24 00:09:11;;;;;;;;;;;-9.80;99.90;;;;;;4174369;28;20442;-57
2022/01/24 00:11:16;;;;;;;;;;;-9.90;99.90;;;;;;4173053;28;20684;-59
2022/01/24 00:13:55;;;;;;;;;;;-9.80;99.90;;;;;;4174428;28;19958;-57
2022/01/24 00:16:12;;;;;;;;;;;-9.80;99.90;;;;;;4172922;28;20421;-60
2022/01/24 00:18:26;;;;;;;;;;;-9.70;99.90;;;;;;4174187;28;19912;-59
2022/01/24 00:27:10;;;;;;;;;;;-9.70;99.90;;;;;;4176666;28;19970;-59
2022/01/24 00:29:12;;;;;;;;;;;-9.70;99.90;;;;;;4176490;28;19978;-59
2022/01/24 00:31:13;;;;;;;;;;;-9.80;99.90;;;;;;4176975;28;19917;-60
2022/01/24 00:33:14;;;;;;;;;;;-9.80;99.90;;;;;;4175840;28;19950;-59
2022/01/24 00:35:17;;;;;;;;;;;-9.80;99.90;;;;;;4177542;28;19917;-60
2022/01/24 00:37:18;;;;;;;;;;;-9.80;99.90;;;;;;4157528;28;20673;-58
2022/01/24 00:39:20;;;;;;;;;;;-9.90;99.90;;;;;;4176994;28;19913;-56
2022/01/24 00:41:22;;;;;;;;;;;-9.90;99.90;;;;;;4175478;28;19913;-58
2022/01/24 00:43:44;;;;;;;;;;;-10.00;99.90;;;;;;4177196;28;19967;-60
2022/01/24 00:56:38;;;;;;;;;;;-10.40;99.90;;;;;;4176799;28;19913;-60
2022/01/24 00:58:38;;;;;;;;;;;-10.40;99.90;;;;;;4175919;28;19913;-58
2022/01/24 01:00:40;;;;;;;;;;;-10.40;99.90;;;;;;4176849;28;19913;-56
2022/01/24 01:02:41;;;;;;;;;;;-10.40;99.90;;;;;;4174733;28;19917;-56
2022/01/24 01:05:02;;;;;;;;;;;-10.40;99.90;;;;;;4177407;28;19913;-56
2022/01/24 01:07:06;;;;;;;;;;;-10.40;99.90;;;;;;4175397;28;19959;-59
2022/01/24 01:18:25;;;;;;;;;;;-10.50;99.90;;;;;;4177111;28;19943;-57
2022/01/24 01:20:29;;;;;;;;;;;-10.50;99.90;;;;;;4175335;28;20481;-60
2022/01/24 01:22:30;;;;;;;;;;;-10.60;99.90;;;;;;4176338;28;19920;-58
2022/01/24 01:24:35;;;;;;;;;;;-10.70;99.90;;;;;;4175088;28;19912;-58
2022/01/24 01:26:42;;;;;;;;;;;-10.80;99.90;;;;;;4175870;28;19913;-58
2022/01/24 01:28:47;;;;;;;;;;;-10.80;99.90;;;;;;4175331;28;19917;-58
2022/01/24 01:30:51;;;;;;;;;;;-10.90;99.90;;;;;;4175875;28;19913;-59
2022/01/24 01:33:10;;;;;;;;;;;-10.90;99.90;;;;;;4174319;28;19916;-61
2022/01/24 01:55:48;;;;;;;;;;;-11.20;99.90;;;;;;4175283;28;19909;-59
2022/01/24 01:57:48;;;;;;;;;;;-11.20;99.90;;;;;;4175744;28;19913;-58
2022/01/24 01:59:49;;;;;;;;;;;-11.20;99.90;;;;;;4174921;28;19913;-58
2022/01/24 02:01:50;;;;;;;;;;;-11.30;99.90;;;;;;4175317;28;19924;-57
2022/01/24 02:03:54;;;;;;;;;;;-11.20;99.90;;;;;;4175021;28;20399;-59
2022/01/24 02:05:56;;;;;;;;;;;-11.20;99.90;;;;;;4175991;28;19909;-60
2022/01/24 02:07:57;;;;;;;;;;;-11.30;99.90;;;;;;4174148;28;20875;-58
2022/01/24 02:09:58;;;;;;;;;;;-11.30;99.90;;;;;;4174889;28;19924;-59
2022/01/24 02:11:59;;;;;;;;;;;-11.30;99.90;;;;;;4174166;28;19912;-59
2022/01/24 02:14:07;;;;;;;;;;;-11.30;99.90;;;;;;4175713;28;20724;-58
2022/01/24 02:24:44;;;;;;;;;;;-11.50;99.90;;;;;;4174419;28;20007;-59
2022/01/24 02:26:48;;;;;;;;;;;-11.50;99.90;;;;;;4157483;28;19968;-62
2022/01/24 02:32:57;;;;;;;;;;;-11.50;99.90;;;;;;4174039;28;19944;-57
2022/01/24 02:34:58;;;;;;;;;;;-11.50;99.90;;;;;;4174986;28;19913;-59
2022/01/24 02:37:03;;;;;;;;;;;-11.40;99.90;;;;;;4175028;28;19909;-57
2022/01/24 02:39:29;;;;;;;;;;;-11.40;99.90;;;;;;4173859;28;19914;-58
2022/01/24 02:48:30;;;;;;;;;;;-11.50;99.90;;;;;;4143714;28;19913;-57
2022/01/24 02:52:33;;;;;;;;;;;-11.70;99.90;;;;;;4173216;28;19912;-57
2022/01/24 02:54:35;;;;;;;;;;;-11.80;99.90;;;;;;4168712;28;20442;-58
2022/01/24 02:56:36;;;;;;;;;;;-11.80;99.90;;;;;;4171408;28;19913;-59
2022/01/24 02:58:37;;;;;;;;;;;-11.90;99.90;;;;;;4170565;28;19931;-58
2022/01/24 03:00:38;;;;;;;;;;;-11.90;99.90;;;;;;4171326;28;19948;-57
2022/01/24 03:02:39;;;;;;;;;;;-11.90;99.90;;;;;;4174498;28;19921;-57
2022/01/24 03:04:40;;;;;;;;;;;-11.90;99.90;;;;;;4155975;28;19955;-57
2022/01/24 03:06:41;;;;;;;;;;;-11.90;99.90;;;;;;4174917;28;19908;-59
2022/01/24 03:08:42;;;;;;;;;;;-12.00;99.90;;;;;;4173543;28;19966;-58
2022/01/24 03:10:46;;;;;;;;;;;-12.00;99.90;;;;;;4174914;28;19967;-59
2022/01/24 03:12:57;;;;;;;;;;;-12.00;99.90;;;;;;4173302;28;19913;-57
2022/01/24 03:14:58;;;;;;;;;;;-12.00;99.90;;;;;;4174821;28;19966;-59
2022/01/24 03:17:00;;;;;;;;;;;-12.00;99.90;;;;;;4173435;28;19913;-57
2022/01/24 03:19:01;;;;;;;;;;;-12.00;99.90;;;;;;4156359;28;19909;-56
2022/01/24 03:21:02;;;;;;;;;;;-12.00;99.90;;;;;;4172717;28;19923;-55
2022/01/24 03:23:03;;;;;;;;;;;-12.10;99.90;;;;;;4174723;28;19924;-60
2022/01/24 03:25:04;;;;;;;;;;;-12.10;99.90;;;;;;4173366;28;19913;-57
2022/01/24 03:27:05;;;;;;;;;;;-12.10;99.90;;;;;;4174472;28;19994;-59
2022/01/24 03:29:06;;;;;;;;;;;-12.10;99.90;;;;;;4173415;28;19915;-58
2022/01/24 03:31:07;;;;;;;;;;;-12.10;99.90;;;;;;4173950;28;19913;-56
2022/01/24 03:33:09;;;;;;;;;;;-12.10;99.90;;;;;;4173318;28;20356;-57
2022/01/24 03:35:10;;;;;;;;;;;-12.10;99.90;;;;;;4173277;28;19959;-58
2022/01/24 03:37:11;;;;;;;;;;;-12.10;99.90;;;;;;4174439;28;19917;-59
2022/01/24 03:39:12;;;;;;;;;;;-12.10;99.90;;;;;;4172407;28;19913;-56
2022/01/24 03:41:13;;;;;;;;;;;-12.10;99.90;;;;;;4156310;28;20579;-58
2022/01/24 03:43:14;;;;;;;;;;;-12.10;99.90;;;;;;4173633;28;19954;-59
2022/01/24 03:45:16;;;;;;;;;;;-12.10;99.90;;;;;;4174279;28;19963;-58
2022/01/24 03:47:41;;;;;;;;;;;-12.10;99.90;;;;;;4173192;28;19913;-59
2022/01/24 03:49:48;;;;;;;;;;;-12.10;99.90;;;;;;4159724;28;20439;-57
2022/01/24 03:51:49;;;;;;;;;;;-12.10;99.90;;;;;;4173401;28;19982;-58
2022/01/24 03:53:50;;;;;;;;;;;-12.10;99.90;;;;;;4174550;28;19913;-55
2022/01/24 03:55:51;;;;;;;;;;;-12.10;99.90;;;;;;4174379;28;19913;-59
2022/01/24 03:57:52;;;;;;;;;;;-12.10;99.90;;;;;;4177665;28;19967;-59
2022/01/24 03:59:53;;;;;;;;;;;-12.20;99.90;;;;;;4176555;28;20343;-61
2022/01/24 04:01:54;;;;;;;;;;;-12.20;99.90;;;;;;4177902;28;19920;-60
2022/01/24 04:03:55;;;;;;;;;;;-12.30;99.90;;;;;;4175969;28;20280;-60
2022/01/24 04:05:56;;;;;;;;;;;-12.30;99.90;;;;;;4177084;28;19913;-54
2022/01/24 04:07:57;;;;;;;;;;;-12.40;99.90;;;;;;4176072;28;19916;-60
2022/01/24 04:10:04;;;;;;;;;;;-12.40;99.90;;;;;;4175689;28;19929;-59
2022/01/24 04:12:06;;;;;;;;;;;-12.50;99.90;;;;;;4176665;28;19917;-56
2022/01/24 04:16:33;;;;;;;;;;;-12.60;99.90;;;;;;4138597;28;19963;-59
2022/01/24 04:18:43;;;;;;;;;;;-12.60;99.90;;;;;;4177008;28;19916;-56
2022/01/24 04:23:06;;;;;;;;;;;-12.60;99.90;;;;;;4176909;28;20422;-59
2022/01/24 04:25:13;;;;;;;;;;;-12.60;99.90;;;;;;4176558;28;20388;-58
2022/01/24 04:27:14;;;;;;;;;;;-12.60;99.90;;;;;;4176115;28;19924;-57
2022/01/24 04:29:15;;;;;;;;;;;-12.60;99.90;;;;;;4176433;28;20744;-59
2022/01/24 04:31:16;;;;;;;;;;;-12.60;99.90;;;;;;4157530;28;19913;-57
2022/01/24 04:33:17;;;;;;;;;;;-12.60;99.90;;;;;;4177289;28;19966;-59
2022/01/24 04:35:18;;;;;;;;;;;-12.60;99.90;;;;;;4176336;28;20462;-59
2022/01/24 04:37:19;;;;;;;;;;;-12.60;99.90;;;;;;4176302;28;19917;-60
2022/01/24 04:39:20;;;;;;;;;;;-12.70;99.90;;;;;;4175186;28;19947;-57
2022/01/24 04:41:35;;;;;;;;;;;-12.60;99.90;;;;;;4176884;28;19943;-58
2022/01/24 04:43:52;;;;;;;;;;;-12.60;99.90;;;;;;4175747;28;20011;-59
2022/01/24 04:56:43;;;;;;;;;;;-12.60;99.90;;;;;;4174771;28;19921;-58
2022/01/24 04:58:44;;;;;;;;;;;-12.70;99.90;;;;;;4176928;28;20047;-61
2022/01/24 05:00:45;;;;;;;;;;;-12.70;99.90;;;;;;4174992;28;19912;-64
2022/01/24 05:02:45;;;;;;;;;;;-12.80;99.90;;;;;;4175699;28;19916;-55
2022/01/24 05:04:47;;;;;;;;;;;-12.80;99.90;;;;;;4175905;28;19919;-60
2022/01/24 05:06:48;;;;;;;;;;;-12.80;99.90;;;;;;4174837;28;19912;-57
2022/01/24 05:08:49;;;;;;;;;;;-12.90;99.90;;;;;;4175175;28;19919;-59
2022/01/24 05:10:58;;;;;;;;;;;-12.90;99.90;;;;;;4175856;28;19927;-60
2022/01/24 05:24:19;;;;;;;;;;;-13.20;99.90;;;;;;4176415;28;19959;-54
2022/01/24 05:26:20;;;;;;;;;;;-13.20;99.90;;;;;;4175318;28;19913;-58
2022/01/24 05:28:21;;;;;;;;;;;-13.20;99.90;;;;;;4175690;28;19943;-57
2022/01/24 05:30:22;;;;;;;;;;;-13.10;99.90;;;;;;4173921;28;20327;-59
2022/01/24 05:32:23;;;;;;;;;;;-13.10;99.90;;;;;;4175736;28;19912;-58
2022/01/24 05:34:24;;;;;;;;;;;-13.10;99.90;;;;;;4175109;28;19909;-60
2022/01/24 05:36:25;;;;;;;;;;;-13.10;99.90;;;;;;4175679;28;19916;-58
2022/01/24 05:38:26;;;;;;;;;;;-13.10;99.90;;;;;;4175547;28;20420;-57
2022/01/24 05:40:27;;;;;;;;;;;-13.10;99.90;;;;;;4175042;28;19966;-57
2022/01/24 05:42:28;;;;;;;;;;;-13.10;99.90;;;;;;4176250;28;19913;-55
2022/01/24 05:44:29;;;;;;;;;;;-13.10;99.90;;;;;;4174684;28;19932;-55
2022/01/24 05:46:30;;;;;;;;;;;-13.10;99.90;;;;;;4175245;28;19913;-60
2022/01/24 05:48:31;;;;;;;;;;;-13.10;99.90;;;;;;4174480;28;19909;-56
2022/01/24 05:50:32;;;;;;;;;;;-13.10;99.90;;;;;;4176029;28;19921;-58
2022/01/24 05:52:33;;;;;;;;;;;-13.20;99.90;;;;;;4176586;28;20482;-58
2022/01/24 05:54:34;;;;;;;;;;;-13.20;99.90;;;;;;4179687;28;19966;-57
2022/01/24 05:56:35;;;;;;;;;;;-13.20;99.90;;;;;;4175399;28;19912;-58
2022/01/24 05:58:36;;;;;;;;;;;-13.20;99.90;;;;;;4175133;28;19919;-60
2022/01/24 06:00:37;;;;;;;;;;;-13.20;99.90;;;;;;4172216;28;19913;-57
2022/01/24 06:02:39;;;;;;;;;;;-13.20;99.90;;;;;;4175509;28;19913;-57
2022/01/24 06:04:40;;;;;;;;;;;-13.10;99.90;;;;;;4175273;28;19912;-58
2022/01/24 06:06:40;;;;;;;;;;;-13.20;99.90;;;;;;4174936;28;19920;-58
2022/01/24 06:08:41;;;;;;;;;;;-13.10;99.90;;;;;;4175127;28;19917;-55
2022/01/24 06:10:44;;;;;;;;;;;-13.00;99.90;;;;;;4174441;28;19924;-57
2022/01/24 06:12:45;;;;;;;;;;;-12.80;99.90;;;;;;4156642;28;20369;-54
2022/01/24 06:14:46;;;;;;;;;;;-12.70;99.90;;;;;;4174464;28;20263;-58
2022/01/24 06:16:47;;;;;;;;;;;-12.70;99.90;;;;;;4173810;28;20011;-58
2022/01/24 06:18:48;;;;;;;;;;;-12.50;99.90;;;;;;4173649;28;19913;-56
2022/01/24 06:20:49;;;;;;;;;;;-12.20;99.90;;;;;;4175206;28;19913;-58
2022/01/24 06:22:50;;;;;;;;;;;-11.90;99.90;;;;;;4173242;28;19948;-58
2022/01/24 06:24:51;;;;;;;;;;;-11.70;99.90;;;;;;4175709;28;19958;-60
2022/01/24 06:26:52;;;;;;;;;;;-11.60;99.90;;;;;;4173651;28;19955;-53
2022/01/24 06:28:53;;;;;;;;;;;-11.40;99.90;;;;;;4175245;28;19962;-59
2022/01/24 06:30:54;;;;;;;;;;;-11.20;99.90;;;;;;4173845;28;20337;-60
2022/01/24 06:32:54;;;;;;;;;;;-11.00;99.90;;;;;;4174919;28;19951;-60
2022/01/24 06:34:55;;;;;;;;;;;-10.60;99.90;;;;;;4173749;28;19909;-57
2022/01/24 06:36:57;;;;;;;;;;;-10.30;99.90;;;;;;4174285;28;19928;-60
2022/01/24 06:39:00;;;;;;;;;;;-9.90;99.90;;;;;;4174622;28;19912;-59
2022/01/24 06:41:01;;;;;;;;;;;-9.80;99.90;;;;;;4174028;28;19958;-59
2022/01/24 06:45:13;;;;;;;;;;;-9.40;99.90;;;;;;4257333;22;19986;-58
2022/01/24 06:47:14;;;;;;;;;;;-9.00;99.90;;;;;;4157037;28;19925;-61
2022/01/24 06:49:15;;;;;;;;;;;-8.70;99.90;;;;;;4158150;28;20418;-59
2022/01/24 06:51:17;;;;;;;;;;;-8.30;99.90;;;;;;4156617;28;19917;-61
2022/01/24 06:53:18;;;;;;;;;;;-8.10;99.90;;;;;;4158313;28;19917;-60
2022/01/24 06:55:19;;;;;;;;;;;-8.00;99.90;;;;;;4156535;28;20365;-61
2022/01/24 06:57:20;;;;;;;;;;;-7.70;99.90;;;;;;4157543;28;20008;-58
2022/01/24 06:59:21;;;;;;;;;;;-7.40;99.90;;;;;;4155193;28;19913;-60
2022/01/24 07:01:22;;;;;;;;;;;-7.10;99.90;;;;;;4159309;28;20392;-60
2022/01/24 07:03:23;;;;;;;;;;;-6.80;99.90;;;;;;4157644;28;19913;-60
2022/01/24 07:05:24;;;;;;;;;;;-7.00;99.90;;;;;;4157038;28;20678;-59
2022/01/24 07:07:25;;;;;;;;;;;-6.90;99.90;;;;;;4157375;28;19917;-58
2022/01/24 07:09:26;;;;;;;;;;;-6.80;99.90;;;;;;4157337;28;19917;-60
2022/01/24 07:11:27;;;;;;;;;;;-6.50;99.90;;;;;;4157744;28;19924;-60
2022/01/24 07:13:28;;;;;;;;;;;-6.30;99.90;;;;;;4156614;28;19920;-60
2022/01/24 07:15:34;;;;;;;;;;;-6.20;99.90;;;;;;4158228;28;19939;-60
2022/01/24 07:19:56;;;;;;;;;;;-6.30;99.90;;;;;;4115397;28;19967;-61
2022/01/24 07:21:58;;;;;;;;;;;-6.30;99.90;;;;;;4156005;28;19913;-60
2022/01/24 07:23:59;;;;;;;;;;;-6.30;99.90;;;;;;4156615;28;19921;-61
2022/01/24 07:26:00;;;;;;;;;;;-6.00;99.90;;;;;;4153867;28;19948;-61
2022/01/24 07:28:01;;;;;;;;;;;-5.80;99.90;;;;;;4157616;28;19913;-60
2022/01/24 07:30:03;;;;;;;;;;;-5.60;99.90;;;;;;4155883;28;19967;-60
2022/01/24 07:32:04;;;;;;;;;;;-5.40;99.90;;;;;;4157405;28;20311;-61
2022/01/24 07:34:05;;;;;;;;;;;-5.10;99.90;;;;;;4156380;28;20213;-61
2022/01/24 07:36:06;;;;;;;;;;;-4.80;99.90;;;;;;4157525;28;20376;-59
2022/01/24 07:38:07;;;;;;;;;;;-4.70;99.90;;;;;;4156660;28;19909;-59
2022/01/24 07:40:10;;;;;;;;;;;-4.50;99.90;;;;;;4156963;28;19913;-60
2022/01/24 07:42:27;;;;;;;;;;;-4.90;97.20;;;;;;4156911;28;19989;-60
2022/01/24 07:44:28;;;;;;;;;;;-5.10;97.10;;;;;;4156634;28;19952;-60
2022/01/24 07:46:28;;;;;;;;;;;-5.10;98.30;;;;;;4157390;28;19921;-60
2022/01/24 07:48:29;;;;;;;;;;;-4.70;99.10;;;;;;4156123;28;19913;-62
2022/01/24 07:50:31;;;;;;;;;;;-4.50;98.40;;;;;;4156903;28;20702;-60
2022/01/24 07:52:32;;;;;;;;;;;-4.40;98.30;;;;;;4156381;28;19996;-59
2022/01/24 07:54:33;;;;;;;;;;;-4.70;96.00;;;;;;4157777;28;19909;-58
2022/01/24 07:56:34;;;;;;;;;;;-4.90;97.20;;;;;;4156162;28;19959;-60
2022/01/24 07:58:35;;;;;;;;;;;-4.70;98.40;;;;;;4157398;28;19917;-61
2022/01/24 08:00:36;;;;;;;;;;;-4.70;96.10;;;;;;4156466;28;19936;-60
2022/01/24 08:02:37;;;;;;;;;;;-4.80;95.90;;;;;;4157205;28;20369;-59
2022/01/24 08:04:38;;;;;;;;;;;-5.10;95.10;;;;;;4156136;28;19948;-61
2022/01/24 08:06:39;;;;;;;;;;;-5.40;95.40;;;;;;4157596;28;20007;-60
2022/01/24 08:08:40;;;;;;;;;;;-5.60;95.90;;;;;;4156067;28;19909;-60
2022/01/24 08:10:41;;;;;;;;;;;-5.70;96.00;;;;;;4156918;28;19921;-59
2022/01/24 08:12:44;;;;;;;;;;;-5.50;96.40;;;;;;4156203;28;20626;-58
2022/01/24 08:14:45;;;;;;;;;;;-5.10;96.90;;;;;;4157070;28;19913;-58
2022/01/24 08:16:45;;;;;;;;;;;-4.80;96.40;;;;;;4157122;28;19913;-60
2022/01/24 08:18:51;;;;;;;;;;;-4.90;95.30;;;;;;4156181;28;20274;-60
2022/01/24 08:20:51;;;;;;;;;;;-5.00;95.20;;;;;;4156234;28;19913;-60
2022/01/24 08:22:52;;;;;;;;;;;-5.00;95.70;;;;;;4155663;28;20634;-59
2022/01/24 08:24:53;;;;;;;;;;;-5.30;95.00;;;;;;4156902;28;20460;-58
2022/01/24 08:26:54;;;;;;;;;;;-5.20;95.50;;;;;;4155915;28;19936;-58
2022/01/24 08:28:55;;;;;;;;;;;-5.00;95.70;;;;;;4157015;28;20316;-59
2022/01/24 08:30:56;;;;;;;;;;;-4.70;95.50;;;;;;4155900;28;19925;-60
2022/01/24 08:32:57;;;;;;;;;;;-4.60;95.40;;;;;;4156870;28;21336;-60
2022/01/24 08:34:58;;;;;;;;;;;-4.40;95.80;;;;;;4155034;28;19913;-59
2022/01/24 08:36:59;;;;;;;;;;;-4.10;94.70;;;;;;4156392;28;19913;-59
2022/01/24 08:39:06;;;;;;;;;;;-3.80;94.70;;;;;;4155496;28;19913;-59
2022/01/24 08:41:15;;;;;;;;;;;-3.50;94.00;;;;;;4156949;28;19993;-60
2022/01/24 08:43:24;;;;;;;;;;;-3.40;93.80;;;;;;4157850;28;19909;-61
2022/01/24 08:47:45;;;;;;;;;;;-3.60;93.00;;;;;;4159252;28;20276;-59
2022/01/24 08:49:46;;;;;;;;;;;-3.40;93.10;;;;;;4160257;28;19909;-64
2022/01/24 08:51:47;;;;;;;;;;;-3.30;92.50;;;;;;4159230;28;20020;-59
2022/01/24 08:53:48;;;;;;;;;;;-3.70;92.10;;;;;;4159516;28;19913;-60
2022/01/24 08:55:49;;;;;;;;;;;-3.70;93.10;;;;;;4159424;28;20007;-60
2022/01/24 08:57:50;;;;;;;;;;;-3.70;93.10;;;;;;4159306;28;19980;-60
2022/01/24 08:59:52;;;;;;;;;;;-3.50;93.20;;;;;;4159446;28;19905;-62
2022/01/24 09:01:53;;;;;;;;;;;-3.40;92.20;;;;;;4158647;28;19913;-62
2022/01/24 09:03:54;;;;;;;;;;;-3.60;92.40;;;;;;4159788;28;19920;-60
2022/01/24 09:05:57;;;;;;;;;;;-3.80;92.30;;;;;;4158254;28;19913;-60
2022/01/24 09:07:58;;;;;;;;;;;-3.70;92.70;;;;;;4159888;28;19913;-59
2022/01/24 09:09:59;;;;;;;;;;;-4.00;92.50;;;;;;4158786;28;19913;-61
2022/01/24 09:12:01;;;;;;;;;;;-4.20;93.10;;;;;;4159873;28;20458;-59
2022/01/24 09:14:03;;;;;;;;;;;-4.00;93.70;;;;;;4157900;28;19917;-59
2022/01/24 09:16:04;;;;;;;;;;;-4.00;94.00;;;;;;4160112;28;20399;-59
2022/01/24 09:18:05;;;;;;;;;;;-3.90;93.70;;;;;;4158711;28;19912;-62
2022/01/24 09:20:06;;;;;;;;;;;-3.90;93.50;;;;;;4159337;28;19948;-61
2022/01/24 09:22:07;;;;;;;;;;;-3.80;93.30;;;;;;4157113;28;19955;-60
2022/01/24 09:24:08;;;;;;;;;;;-3.80;93.60;;;;;;4158701;28;20289;-64
2022/01/24 09:26:09;;;;;;;;;;;-3.50;93.80;;;;;;4158287;28;19914;-60
2022/01/24 09:28:10;;;;;;;;;;;-3.20;93.40;;;;;;4158203;28;19983;-60
2022/01/24 09:30:13;;;;;;;;;;;-2.90;92.80;;;;;;4158584;28;19978;-61
2022/01/24 09:32:14;;;;;;;;;;;-2.70;93.00;;;;;;4158066;28;19920;-59
2022/01/24 09:34:15;;;;;;;;;;;-2.70;92.20;;;;;;4158763;28;19963;-61
2022/01/24 09:36:16;;;;;;;;;;;-3.10;91.00;;;;;;4157465;28;19913;-60
2022/01/24 09:38:17;;;;;;;;;;;-3.40;91.70;;;;;;4158652;28;19933;-59
2022/01/24 09:40:19;;;;;;;;;;;-3.30;92.70;;;;;;4157421;28;19913;-60
2022/01/24 09:42:20;;;;;;;;;;;-3.10;92.70;;;;;;4158886;28;19913;-59
2022/01/24 09:44:21;;;;;;;;;;;-3.10;92.30;;;;;;4157191;28;19921;-60
2022/01/24 09:46:22;;;;;;;;;;;-3.00;92.50;;;;;;4159432;28;19932;-63
2022/01/24 09:48:23;;;;;;;;;;;-2.90;92.60;;;;;;4158294;28;19959;-61
2022/01/24 09:50:25;;;;;;;;;;;-2.90;92.60;;;;;;4141215;28;20510;-61
2022/01/24 09:52:26;;;;;;;;;;;-2.90;92.20;;;;;;4157342;28;19995;-58
2022/01/24 09:54:27;;;;;;;;;;;-3.00;91.80;;;;;;4158424;28;19925;-60
2022/01/24 09:56:28;;;;;;;;;;;-2.90;92.60;;;;;;4158155;28;19978;-59
2022/01/24 09:58:29;;;;;;;;;;;-3.00;92.30;;;;;;4158142;28;20464;-60
2022/01/24 10:00:30;;;;;;;;;;;-3.00;92.00;;;;;;4158163;28;20435;-58
2022/01/24 10:02:31;;;;;;;;;;;-3.10;91.40;;;;;;4157673;28;19913;-61
2022/01/24 10:04:33;;;;;;;;;;;-3.20;91.00;;;;;;4158347;28;19913;-61
2022/01/24 10:06:52;;;;;;;;;;;-3.20;90.80;;;;;;4157531;28;19959;-60
2022/01/24 10:08:53;;;;;;;;;;;-3.30;90.60;;;;;;4158174;28;20304;-59
2022/01/24 10:10:56;;;;;;;;;;;-3.20;90.50;;;;;;4156898;28;19928;-59
2022/01/24 10:18:03;;;;;;;;;;;-3.30;91.00;;;;;;4157870;28;19975;-60
2022/01/24 10:20:23;;;;;;;;;;;-3.20;89.90;;;;;;4157028;28;19913;-60
2022/01/24 10:22:25;;;;;;;;;;;-3.40;89.60;;;;;;4157904;28;19939;-60
2022/01/24 10:24:26;;;;;;;;;;;-3.50;90.30;;;;;;4157708;28;19913;-60
2022/01/24 10:26:27;;;;;;;;;;;-3.40;91.00;;;;;;4157966;28;19909;-61
2022/01/24 10:28:31;;;;;;;;;;;-3.40;91.20;;;;;;4156939;28;19959;-58
2022/01/24 10:30:32;;;;;;;;;;;-3.30;90.90;;;;;;4158506;28;20340;-60
2022/01/24 10:32:35;;;;;;;;;;;-3.50;89.80;;;;;;4157365;28;20365;-60
2022/01/24 10:34:37;;;;;;;;;;;-3.80;90.00;;;;;;4158486;28;20355;-60
2022/01/24 10:36:48;;;;;;;;;;;-3.90;90.30;;;;;;4156252;28;19967;-59
2022/01/24 10:38:55;;;;;;;;;;;-3.80;91.30;;;;;;4157255;28;19967;-61
2022/01/24 10:43:37;;;;;;;;;;;-3.80;90.60;;;;;;4158135;28;20296;-62
2022/01/24 10:45:42;;;;;;;;;;;-4.00;90.20;;;;;;4139794;28;19925;-59
2022/01/24 10:47:45;;;;;;;;;;;-4.00;90.50;;;;;;4158260;28;19909;-60
2022/01/24 10:49:46;;;;;;;;;;;-4.10;90.40;;;;;;4156620;28;19913;-62
2022/01/24 10:51:47;;;;;;;;;;;-4.00;91.10;;;;;;4157897;28;19921;-61
2022/01/24 10:53:55;;;;;;;;;;;-3.80;91.30;;;;;;4156613;28;19913;-60
2022/01/24 10:55:56;;;;;;;;;;;-3.80;90.60;;;;;;4157916;28;19909;-59
2022/01/24 10:57:59;;;;;;;;;;;-3.80;90.70;;;;;;4156669;28;19920;-60
2022/01/24 11:00:05;;;;;;;;;;;-3.70;90.10;;;;;;4158078;28;19928;-60
2022/01/24 11:02:06;;;;;;;;;;;-3.80;90.10;;;;;;4138159;28;19913;-61
2022/01/24 11:04:17;;;;;;;;;;;-3.80;89.40;;;;;;4157383;28;19916;-61
2022/01/24 11:06:24;;;;;;;;;;;-3.80;90.20;;;;;;4156017;28;19909;-61
2022/01/24 11:08:27;;;;;;;;;;;-3.80;90.30;;;;;;4157157;28;19921;-59
2022/01/24 11:10:29;;;;;;;;;;;-3.70;90.20;;;;;;4156856;28;19913;-60
2022/01/24 11:12:30;;;;;;;;;;;-3.80;88.90;;;;;;4157276;28;19970;-60
2022/01/24 11:14:32;;;;;;;;;;;-3.90;88.60;;;;;;4156537;28;19916;-60
2022/01/24 11:16:33;;;;;;;;;;;-4.00;89.10;;;;;;4157312;28;19917;-62
2022/01/24 11:18:34;;;;;;;;;;;-4.00;89.50;;;;;;4157145;28;19909;-60
2022/01/24 11:20:39;;;;;;;;;;;-4.10;89.10;;;;;;4156786;28;21250;-61
2022/01/24 11:22:44;;;;;;;;;;;-4.10;89.30;;;;;;4157413;28;19917;-61
2022/01/24 11:24:56;;;;;;;;;;;-4.00;89.70;;;;;;4156269;28;19917;-62
2022/01/24 11:26:58;;;;;;;;;;;-3.80;89.80;;;;;;4157356;28;19909;-61
2022/01/24 11:28:59;;;;;;;;;;;-3.60;89.40;;;;;;4156191;28;20001;-59
2022/01/24 11:31:03;;;;;;;;;;;-3.50;88.00;;;;;;4157605;28;19925;-61
2022/01/24 11:33:10;;;;;;;;;;;-3.40;87.30;;;;;;4156445;28;20324;-59
2022/01/24 11:35:12;;;;;;;;;;;-3.20;87.90;;;;;;4156843;28;20463;-60
2022/01/24 11:37:31;;;;;;;;;;;-3.10;87.20;;;;;;4155837;28;19913;-59
2022/01/24 11:39:33;;;;;;;;;;;-3.00;87.50;;;;;;4157029;28;19955;-59
2022/01/24 11:41:38;;;;;;;;;;;-3.10;90.60;;;;;;4156296;28;19913;-58
2022/01/24 11:43:45;;;;;;;;;;;-3.40;90.80;;;;;;4157360;28;19960;-60
2022/01/24 11:45:57;;;;;;;;;;;-3.60;91.40;;;;;;4156600;28;19925;-62
2022/01/24 11:48:13;;;;;;;;;;;-3.50;91.50;;;;;;4157676;28;19917;-61
2022/01/24 11:50:28;;;;;;;;;;;-3.50;91.90;;;;;;4155779;28;19917;-60
2022/01/24 11:52:33;;;;;;;;;;;-3.60;91.00;;;;;;4157127;28;19979;-57
2022/01/24 11:55:15;;;;;;;;;;;-3.60;91.00;;;;;;4155765;28;19913;-60
2022/01/24 11:57:17;;;;;;;;;;;-3.60;91.30;;;;;;4156280;28;19913;-60
2022/01/24 11:59:22;;;;;;;;;;;-3.60;92.20;;;;;;4156177;28;19910;-59
2022/01/24 12:01:37;;;;;;;;;;;-3.70;92.30;;;;;;4157216;28;19913;-61
2022/01/24 12:03:48;;;;;;;;;;;-3.80;92.40;;;;;;4156324;28;19960;-59
2022/01/24 12:05:51;;;;;;;;;;;-3.70;92.70;;;;;;4156560;28;19913;-60
2022/01/24 12:07:55;;;;;;;;;;;-3.70;91.90;;;;;;4155793;28;19909;-59
2022/01/24 12:10:15;;;;;;;;;;;-3.70;91.80;;;;;;4138980;28;19913;-63
2022/01/24 12:12:35;;;;;;;;;;;-3.60;92.50;;;;;;4155408;28;20397;-62
2022/01/24 12:14:37;;;;;;;;;;;-3.50;92.50;;;;;;4156259;28;19913;-60
2022/01/24 12:16:39;;;;;;;;;;;-3.50;92.70;;;;;;4156983;28;19967;-60
2022/01/24 12:18:40;;;;;;;;;;;-3.50;92.20;;;;;;4160372;28;19917;-57
2022/01/24 12:20:42;;;;;;;;;;;-3.50;91.80;;;;;;4159187;28;19967;-60
2022/01/24 12:22:43;;;;;;;;;;;-3.60;92.50;;;;;;4160732;28;20010;-58
2022/01/24 12:24:44;;;;;;;;;;;-3.70;92.90;;;;;;4158709;28;19913;-60
2022/01/24 12:26:47;;;;;;;;;;;-3.70;92.60;;;;;;4160017;28;19916;-60
2022/01/24 12:28:49;;;;;;;;;;;-3.70;92.90;;;;;;4158403;28;19943;-57
2022/01/24 12:30:56;;;;;;;;;;;-3.60;93.50;;;;;;4159384;28;20373;-61
2022/01/24 12:33:03;;;;;;;;;;;-3.70;93.30;;;;;;4158108;28;19959;-60
2022/01/24 12:35:23;;;;;;;;;;;-3.70;93.00;;;;;;4142046;28;19944;-57
2022/01/24 12:37:27;;;;;;;;;;;-3.70;93.10;;;;;;4158883;28;19913;-58
2022/01/24 12:39:50;;;;;;;;;;;-3.80;92.70;;;;;;4159815;28;19944;-63
2022/01/24 12:42:00;;;;;;;;;;;-3.70;92.70;;;;;;4158368;28;19978;-61
2022/01/24 12:46:19;;;;;;;;;;;-3.70;91.90;;;;;;4159745;28;19999;-59
2022/01/24 12:48:20;;;;;;;;;;;-3.60;92.90;;;;;;4158588;28;20031;-62
2022/01/24 12:50:22;;;;;;;;;;;-3.60;91.90;;;;;;4156816;28;19972;-61
2022/01/24 12:52:24;;;;;;;;;;;-3.60;91.90;;;;;;4158934;28;19933;-57
2022/01/24 12:54:29;;;;;;;;;;;-3.60;92.60;;;;;;4158693;28;19913;-60
2022/01/24 12:56:32;;;;;;;;;;;-3.50;91.90;;;;;;4159075;28;19971;-60
2022/01/24 12:58:34;;;;;;;;;;;-3.50;91.50;;;;;;4158317;28;19909;-60
2022/01/24 13:00:35;;;;;;;;;;;-3.50;91.00;;;;;;4159750;28;19917;-61
2022/01/24 13:02:38;;;;;;;;;;;-3.50;91.80;;;;;;4158943;28;20320;-59
2022/01/24 13:04:39;;;;;;;;;;;-3.50;91.30;;;;;;4159109;28;19913;-59
2022/01/24 13:06:43;;;;;;;;;;;-3.50;90.40;;;;;;4159197;28;19909;-58
2022/01/24 13:09:04;;;;;;;;;;;-3.60;90.80;;;;;;4158594;28;19909;-59
2022/01/24 13:11:09;;;;;;;;;;;-3.50;92.00;;;;;;4158757;28;19912;-60
2022/01/24 13:13:13;;;;;;;;;;;-3.40;91.80;;;;;;4158930;28;19921;-60
2022/01/24 13:20:22;;;;;;;;;;;-3.40;91.70;;;;;;4158962;28;20373;-59
2022/01/24 13:23:11;;;;;;;;;;;-3.40;92.00;;;;;;4159475;28;19909;-60
2022/01/24 13:25:23;;;;;;;;;;;-3.40;91.70;;;;;;4150512;28;19909;-58
2022/01/24 13:27:32;;;;;;;;;;;-3.50;92.30;;;;;;4092325;28;20391;-60
2022/01/24 13:29:37;;;;;;;;;;;-3.60;91.20;;;;;;4122092;28;19913;-58
2022/01/24 13:31:38;;;;;;;;;;;-3.50;91.90;;;;;;4157105;28;19921;-58
2022/01/24 13:33:41;;;;;;;;;;;-3.40;90.80;;;;;;4157409;28;19924;-60
2022/01/24 13:35:43;;;;;;;;;;;-3.40;91.90;;;;;;4159482;28;19925;-54
2022/01/24 13:37:44;;;;;;;;;;;-3.50;91.70;;;;;;4158115;28;19963;-61
2022/01/24 13:39:52;;;;;;;;;;;-3.60;91.20;;;;;;4158727;28;20590;-52
2022/01/24 13:41:53;;;;;;;;;;;-3.60;92.00;;;;;;4170615;28;19913;-57
2022/01/24 13:44:05;;;;;;;;;;;-3.50;85.90;;;;;;4175086;28;19964;-58
2022/01/24 13:46:07;;;;;;;;;;;-3.60;83.10;;;;;;4158534;28;19974;-55
2022/01/24 13:48:19;;;;;;;;;;;-3.70;80.60;;;;;;4158874;28;20059;-58
2022/01/24 13:50:20;;;;;;;;;;;-3.60;79.80;;;;;;4157659;28;19963;-54
2022/01/24 13:52:24;;;;;;;;;;;-3.70;79.50;;;;;;4158427;28;19921;-59